Time;durP1;ratioP1;P1;durP2;ratioP2;P2;SDS_P1;SDS_P2;PMS_P1;PMS_P2;Temp;Humidity;BMP_temperature;BMP_pressure;BME280_temperature;BME280_humidity;BME280_pressure;Samples;Min_cycle;Max_cycle;Signal;HPM_P1;HPM_P2
2023/04/12 03:01:52;;;;;;;10.15;2.50;;;8.40;99.90;;;;;;5365068;23;20058;-78
2023/04/12 03:04:17;;;;;;;8.75;2.65;;;8.30;99.90;;;;;;4996843;28;20068;-80
2023/04/12 03:06:51;;;;;;;7.47;2.50;;;8.30;99.90;;;;;;4979007;28;20513;-79
2023/04/12 03:09:17;;;;;;;10.30;2.80;;;8.30;99.90;;;;;;4979341;28;20104;-80
2023/04/12 03:11:44;;;;;;;10.00;3.00;;;8.30;99.90;;;;;;4997313;28;20363;-78
2023/04/12 03:14:09;;;;;;;9.23;2.42;;;8.30;99.90;;;;;;4979618;28;20390;-79
2023/04/12 03:16:35;;;;;;;11.70;3.15;;;8.30;99.90;;;;;;4979461;28;20042;-78
2023/04/12 03:19:02;;;;;;;9.88;2.72;;;8.30;99.90;;;;;;4979639;28;20096;-80
2023/04/12 03:21:27;;;;;;;10.77;2.50;;;8.30;99.90;;;;;;4978984;28;20046;-81
2023/04/12 03:23:53;;;;;;;6.40;2.35;;;8.30;99.90;;;;;;4979245;28;20105;-79
2023/04/12 03:26:19;;;;;;;7.22;2.10;;;8.20;99.90;;;;;;4962794;28;20085;-78
2023/04/12 03:28:46;;;;;;;7.20;2.53;;;8.30;99.90;;;;;;4979172;28;20093;-77
2023/04/12 03:31:11;;;;;;;11.60;2.50;;;8.30;99.90;;;;;;4996254;28;20406;-78
2023/04/12 03:33:37;;;;;;;9.65;2.42;;;8.30;99.90;;;;;;4979346;28;20104;-81
2023/04/12 03:36:04;;;;;;;7.05;2.00;;;8.30;99.90;;;;;;4979413;28;20046;-79
2023/04/12 03:38:30;;;;;;;7.63;2.20;;;8.30;99.90;;;;;;4978949;28;20090;-81
2023/04/12 03:40:55;;;;;;;5.90;2.17;;;8.30;99.90;;;;;;4996562;28;20042;-79
2023/04/12 03:43:21;;;;;;;10.85;1.88;;;8.30;99.90;;;;;;4978452;28;20042;-80
2023/04/12 03:45:47;;;;;;;6.32;2.15;;;8.30;99.90;;;;;;4978604;28;20074;-79
2023/04/12 03:48:12;;;;;;;12.38;2.80;;;8.30;99.90;;;;;;4978652;28;20050;-79
2023/04/12 03:50:47;;;;;;;11.52;3.08;;;8.20;99.90;;;;;;4996502;28;20128;-80
2023/04/12 03:53:13;;;;;;;6.50;2.08;;;8.20;99.90;;;;;;4962757;28;20042;-78
2023/04/12 03:55:42;;;;;;;5.32;2.17;;;8.20;99.90;;;;;;4995998;28;20114;-76
2023/04/12 03:58:07;;;;;;;12.93;2.45;;;8.20;99.90;;;;;;4978397;28;20050;-78
2023/04/12 04:00:33;;;;;;;8.10;2.45;;;8.20;99.90;;;;;;4978041;28;20046;-79
2023/04/12 04:03:01;;;;;;;8.13;2.00;;;8.20;99.90;;;;;;4978246;28;20134;-80
2023/04/12 04:05:29;;;;;;;8.07;2.25;;;8.10;99.90;;;;;;4995774;28;20371;-78
2023/04/12 04:07:59;;;;;;;7.75;2.28;;;8.10;99.90;;;;;;4996262;28;20088;-79
2023/04/12 04:10:26;;;;;;;9.43;2.45;;;8.10;99.90;;;;;;4995763;28;20049;-81
2023/04/12 04:12:52;;;;;;;8.48;2.30;;;8.10;99.90;;;;;;4995842;28;20366;-81
2023/04/12 04:15:18;;;;;;;8.68;2.60;;;8.10;99.90;;;;;;4977745;28;20042;-80
2023/04/12 04:17:44;;;;;;;8.68;2.40;;;8.00;99.90;;;;;;4977809;28;20379;-79
2023/04/12 04:20:12;;;;;;;12.02;2.90;;;8.00;99.90;;;;;;4978106;28;20157;-79
2023/04/12 04:22:38;;;;;;;8.70;2.67;;;8.00;99.90;;;;;;4977663;28;20050;-79
2023/04/12 04:25:04;;;;;;;10.05;2.38;;;8.00;99.90;;;;;;4977603;28;20539;-79
2023/04/12 04:27:33;;;;;;;7.47;2.47;;;8.00;99.90;;;;;;4977515;28;20042;-79
2023/04/12 04:30:01;;;;;;;11.43;2.80;;;7.90;99.90;;;;;;4994747;28;20038;-78
2023/04/12 04:32:27;;;;;;;8.40;2.70;;;7.90;99.90;;;;;;4977465;28;20129;-80
2023/04/12 04:35:00;;;;;;;5.03;2.20;;;7.90;99.90;;;;;;4994820;28;20109;-79
2023/04/12 04:37:30;;;;;;;12.70;4.03;;;7.80;99.90;;;;;;4977532;28;20046;-81
2023/04/12 04:39:56;;;;;;;8.70;2.90;;;7.80;99.90;;;;;;4978173;28;20077;-81
2023/04/12 04:42:23;;;;;;;11.25;3.83;;;7.70;99.90;;;;;;4977792;28;20496;-82
2023/04/12 04:45:01;;;;;;;9.95;4.22;;;7.70;99.90;;;;;;4962609;28;20450;-83
2023/04/12 04:47:37;;;;;;;12.38;4.40;;;7.70;99.90;;;;;;4961416;28;20074;-83
2023/04/12 04:50:06;;;;;;;13.13;4.20;;;7.60;99.90;;;;;;4960804;28;20042;-83
2023/04/12 05:39:42;;;;;;;21.38;10.98;;;7.50;99.90;;;;;;1172417;26;20553;-81
2023/04/12 05:42:10;;;;;;;21.17;10.50;;;7.50;99.90;;;;;;4977218;28;20133;-82
2023/04/12 05:44:47;;;;;;;25.38;9.85;;;7.50;99.90;;;;;;4941696;28;20102;-82
2023/04/12 08:15:29;;;;;;;23.27;14.02;;;8.00;99.90;;;;;;5013044;28;20050;-80
2023/04/12 08:18:47;;;;;;;17.92;10.48;;;8.00;99.90;;;;;;4980579;28;20153;-80
2023/04/12 08:25:40;;;;;;;;;;;;;;;;;;;;;
2023/04/12 08:28:46;;;;;;;;;;;;;;;;;;;;;
2023/04/12 08:42:36;;;;;;;15.65;9.80;;;8.30;99.90;;;;;;4822725;29;19921;-81
2023/04/12 08:49:41;;;;;;;;;;;;;;;;;;;;;
2023/04/12 09:55:58;;;;;;;;;;;;;;;;;;;;;
2023/04/12 10:03:19;;;;;;;12.57;4.40;;;11.60;99.90;;;;;;4769964;30;20063;-80
2023/04/12 10:20:26;;;;;;;10.93;3.13;;;12.40;99.90;;;;;;4935599;29;20038;-81
2023/04/12 10:23:00;;;;;;;22.17;4.55;;;12.20;99.90;;;;;;4887012;29;20536;-81
2023/04/12 10:25:29;;;;;;;14.23;3.30;;;11.90;99.90;;;;;;4941893;28;20050;-80
2023/04/12 10:28:12;;;;;;;13.57;2.95;;;11.80;99.90;;;;;;4960586;28;20081;-80
2023/04/12 10:30:53;;;;;;;;;;;;;;;;;;;;;
2023/04/12 10:33:25;;;;;;;12.05;2.60;;;11.40;99.90;;;;;;4959424;28;20111;-81
2023/04/12 10:36:02;;;;;;;13.80;3.58;;;11.30;99.90;;;;;;4944679;28;20035;-80
2023/04/12 10:38:36;;;;;;;15.88;3.50;;;11.20;99.90;;;;;;4960703;28;20383;-81
2023/04/12 10:41:21;;;;;;;19.98;3.97;;;11.20;99.90;;;;;;4959636;28;20047;-81
2023/04/12 10:43:47;;;;;;;23.83;4.60;;;11.20;99.90;;;;;;4943896;28;20047;-82
2023/04/12 10:46:44;;;;;;;9.32;2.80;;;11.40;99.90;;;;;;4959865;28;20293;-80
2023/04/12 10:49:12;;;;;;;15.52;4.38;;;11.60;99.90;;;;;;4959712;28;20046;-82
2023/04/12 10:51:39;;;;;;;13.85;3.58;;;11.70;99.90;;;;;;4943499;28;20082;-82
2023/04/12 10:54:10;;;;;;;21.48;3.97;;;11.80;99.90;;;;;;4977141;28;20074;-80
2023/04/12 10:57:38;;;;;;;20.23;5.05;;;11.90;99.90;;;;;;4960035;28;20383;-81
2023/04/12 11:03:06;;;;;;;17.70;3.53;;;12.00;99.90;;;;;;5000772;22;20501;-81
2023/04/12 11:06:02;;;;;;;22.58;3.13;;;12.00;99.90;;;;;;4962693;28;20092;-81
2023/04/12 11:09:03;;;;;;;14.73;2.47;;;12.10;99.90;;;;;;4979430;28;20379;-81
2023/04/12 11:11:40;;;;;;;19.52;2.92;;;12.20;99.90;;;;;;4928442;28;20513;-81
2023/04/12 11:14:28;;;;;;;;;;;;;;;;;;;;;
2023/04/12 11:17:15;;;;;;;18.33;2.80;;;12.30;99.90;;;;;;4959377;28;20042;-82
2023/04/12 11:19:41;;;;;;;19.75;3.40;;;12.40;99.90;;;;;;4959719;28;20475;-81
2023/04/12 11:22:11;;;;;;;13.75;2.40;;;12.30;99.90;;;;;;4943137;28;20039;-82
2023/04/12 11:24:38;;;;;;;16.98;3.28;;;12.30;99.90;;;;;;4942816;28;20058;-81
2023/04/12 11:27:08;;;;;;;15.82;2.60;;;12.20;99.90;;;;;;4959808;28;20121;-82
2023/04/12 11:29:50;;;;;;;;;;;;;;;;;;;;;
2023/04/12 11:32:20;;;;;;;13.95;2.30;;;12.20;99.90;;;;;;4965413;28;20053;-76
2023/04/12 11:34:46;;;;;;;19.27;4.80;;;12.10;99.90;;;;;;4944908;28;20062;-82
2023/04/12 11:37:18;;;;;;;14.07;3.33;;;12.10;99.90;;;;;;4943854;28;20099;-81
2023/04/12 11:39:59;;;;;;;13.70;2.83;;;12.20;99.90;;;;;;4959663;28;20031;-81
2023/04/12 11:42:28;;;;;;;12.88;2.40;;;12.30;99.90;;;;;;4919760;29;20052;-81
2023/04/12 11:44:55;;;;;;;9.63;1.80;;;12.40;99.90;;;;;;4904196;29;20051;-82
2023/04/12 11:47:22;;;;;;;17.73;2.97;;;12.50;99.90;;;;;;4919518;29;20043;-82
2023/04/12 11:49:51;;;;;;;15.63;2.75;;;12.40;99.90;;;;;;4935457;29;20413;-82
2023/04/12 11:52:18;;;;;;;11.02;2.17;;;12.40;99.90;;;;;;4935252;29;20047;-80
2023/04/12 11:54:49;;;;;;;15.40;2.88;;;12.40;99.90;;;;;;4935964;29;20434;-81
2023/04/12 11:57:27;;;;;;;10.80;1.95;;;12.50;99.90;;;;;;4903588;29;20052;-82
2023/04/12 11:59:59;;;;;;;9.75;1.42;;;12.60;99.90;;;;;;4935353;29;20044;-81
2023/04/12 12:02:25;;;;;;;8.90;1.60;;;12.70;99.90;;;;;;4919546;29;20475;-81
2023/04/12 12:04:54;;;;;;;6.10;1.60;;;12.70;99.90;;;;;;4903449;29;20130;-81
2023/04/12 12:07:33;;;;;;;;;;;;;;;;;;;;;
2023/04/12 12:10:05;;;;;;;14.40;2.35;;;12.80;99.90;;;;;;4957899;28;20054;-82
2023/04/12 12:12:41;;;;;;;;;;;12.70;99.90;;;;;;4943209;28;20098;-82
2023/04/12 12:15:08;;;;;;;12.80;2.03;;;12.70;99.90;;;;;;4942190;28;19921;-82
2023/04/12 12:17:39;;;;;;;15.90;2.60;;;12.80;99.90;;;;;;4976489;28;20038;-81
2023/04/12 12:20:05;;;;;;;11.93;2.05;;;12.90;99.90;;;;;;4975900;28;20100;-82
2023/04/12 12:22:37;;;;;;;10.93;2.50;;;12.90;99.90;;;;;;4963690;23;20051;-83
2023/04/12 12:25:13;;;;;;;7.93;1.85;;;12.70;99.90;;;;;;4957566;28;20101;-81
2023/04/12 12:28:12;;;;;;;14.18;1.98;;;12.70;99.90;;;;;;4974329;28;20126;-83
2023/04/12 12:30:39;;;;;;;9.02;1.55;;;12.80;99.90;;;;;;4968829;28;20082;-82
2023/04/12 12:33:18;;;;;;;11.65;2.20;;;12.60;99.90;;;;;;4976011;28;20212;-82
2023/04/12 12:35:44;;;;;;;9.20;2.03;;;13.00;99.90;;;;;;4975556;28;20039;-82
2023/04/12 12:38:30;;;;;;;10.43;1.98;;;13.20;99.90;;;;;;4974898;28;20070;-82
2023/04/12 12:40:55;;;;;;;12.80;3.30;;;13.50;99.90;;;;;;4957012;28;20059;-82
2023/04/12 12:43:21;;;;;;;16.50;2.20;;;13.60;99.90;;;;;;4973847;28;20046;-81
2023/04/12 12:45:46;;;;;;;13.20;1.83;;;13.90;99.90;;;;;;4973760;28;20503;-81
2023/04/12 12:48:12;;;;;;;10.27;1.83;;;13.90;99.90;;;;;;4957279;28;20452;-82
2023/04/12 12:50:38;;;;;;;8.90;2.00;;;14.00;99.90;;;;;;4956767;28;20079;-82
2023/04/12 12:53:05;;;;;;;10.95;2.30;;;14.20;99.90;;;;;;4973158;28;20038;-82
2023/04/12 12:55:31;;;;;;;18.27;2.28;;;14.30;99.90;;;;;;4972944;28;20105;-82
2023/04/12 12:57:58;;;;;;;9.50;2.03;;;14.50;99.90;;;;;;4972743;28;20183;-79
2023/04/12 13:00:26;;;;;;;10.15;2.00;;;14.60;99.90;;;;;;4956643;28;20069;-83
2023/04/12 13:02:52;;;;;;;11.93;2.15;;;14.20;99.90;;;;;;4972829;28;20047;-82
2023/04/12 13:05:19;;;;;;;10.25;1.88;;;13.90;99.90;;;;;;4956915;28;20423;-81
2023/04/12 13:07:45;;;;;;;14.07;2.20;;;13.50;99.90;;;;;;4940814;28;20098;-81
2023/04/12 13:10:11;;;;;;;8.85;1.75;;;13.40;99.90;;;;;;4956701;28;20047;-81
2023/04/12 13:12:37;;;;;;;13.93;1.95;;;13.20;99.90;;;;;;4969422;28;20047;-80
2023/04/12 13:15:03;;;;;;;9.93;1.60;;;12.90;99.90;;;;;;4973405;28;20038;-81
2023/04/12 13:17:30;;;;;;;9.82;1.75;;;12.80;99.90;;;;;;4973778;28;20046;-83
2023/04/12 13:19:56;;;;;;;9.10;1.58;;;12.80;99.90;;;;;;4974253;28;20078;-80
2023/04/12 13:22:22;;;;;;;11.32;1.75;;;12.70;99.90;;;;;;4973361;28;20039;-83
2023/04/12 13:24:48;;;;;;;10.75;1.70;;;12.80;99.90;;;;;;4974829;28;20034;-81
2023/04/12 13:27:14;;;;;;;11.55;1.98;;;12.70;99.90;;;;;;4975017;28;20502;-82
2023/04/12 13:29:41;;;;;;;14.10;2.20;;;12.70;99.90;;;;;;4973348;28;20047;-83
2023/04/12 13:32:07;;;;;;;10.60;1.70;;;12.70;99.90;;;;;;4973340;28;20055;-80
2023/04/12 13:34:33;;;;;;;12.80;2.63;;;12.70;99.90;;;;;;4973463;28;20046;-83
2023/04/12 13:36:58;;;;;;;9.00;1.45;;;12.50;99.90;;;;;;4973417;28;20039;-81
2023/04/12 13:39:24;;;;;;;10.10;1.80;;;12.60;99.90;;;;;;4974840;28;20189;-81
2023/04/12 13:41:51;;;;;;;13.25;2.15;;;12.50;99.90;;;;;;4973486;28;20050;-83
2023/04/12 13:44:17;;;;;;;12.13;1.98;;;12.50;99.90;;;;;;4973460;28;20399;-81
2023/04/12 13:46:42;;;;;;;13.38;2.50;;;12.60;99.90;;;;;;4957285;28;20042;-80
2023/04/12 13:49:08;;;;;;;12.88;2.03;;;12.60;99.90;;;;;;4972903;28;20049;-81
2023/04/12 13:51:34;;;;;;;11.77;2.58;;;12.60;99.90;;;;;;4972735;28;20042;-80
2023/04/12 13:53:59;;;;;;;11.52;2.08;;;12.60;99.90;;;;;;4974501;28;20134;-81
2023/04/12 13:56:25;;;;;;;9.75;2.83;;;12.70;99.90;;;;;;4972980;28;20035;-81
2023/04/12 13:58:51;;;;;;;11.65;2.13;;;12.70;99.90;;;;;;4973020;28;20042;-80
2023/04/12 14:01:17;;;;;;;13.77;2.55;;;12.80;99.90;;;;;;4973034;28;20566;-78
2023/04/12 14:03:43;;;;;;;9.65;2.00;;;12.70;99.90;;;;;;4972704;28;20058;-81
2023/04/12 14:06:09;;;;;;;10.77;1.65;;;12.60;99.90;;;;;;4972645;28;20042;-79
2023/04/12 14:08:34;;;;;;;8.32;2.00;;;12.60;99.90;;;;;;4973622;28;20114;-81
2023/04/12 14:11:02;;;;;;;15.13;3.72;;;12.40;99.90;;;;;;4956103;28;20047;-79
2023/04/12 14:13:27;;;;;;;13.10;3.17;;;12.40;99.90;;;;;;4972459;28;20118;-82
2023/04/12 14:15:54;;;;;;;11.93;2.53;;;12.30;99.90;;;;;;4972671;28;20121;-80
2023/04/12 14:18:20;;;;;;;9.15;2.35;;;12.20;99.90;;;;;;4972916;28;20394;-79
2023/04/12 14:20:51;;;;;;;10.07;2.40;;;12.20;99.90;;;;;;4972402;28;20043;-79
2023/04/12 14:23:18;;;;;;;8.75;2.05;;;12.20;99.90;;;;;;4972743;28;20038;-81
2023/04/12 14:25:44;;;;;;;10.13;2.00;;;12.10;99.90;;;;;;4972656;28;20062;-81
2023/04/12 14:28:15;;;;;;;10.68;2.10;;;12.10;99.90;;;;;;4956652;28;20043;-81
2023/04/12 14:30:41;;;;;;;8.80;1.63;;;12.00;99.90;;;;;;4972380;28;20102;-80
2023/04/12 14:33:07;;;;;;;10.70;2.42;;;11.70;99.90;;;;;;4973879;28;20053;-80
2023/04/12 14:35:32;;;;;;;5.45;1.60;;;11.00;99.90;;;;;;4972519;28;20122;-80
2023/04/12 14:37:58;;;;;;;10.15;2.17;;;10.60;99.90;;;;;;4972407;28;20085;-80
2023/04/12 14:40:24;;;;;;;10.63;3.15;;;10.20;99.90;;;;;;4957131;28;20412;-79
2023/04/12 14:42:50;;;;;;;8.20;1.30;;;9.90;99.90;;;;;;4973206;28;20047;-78
2023/04/12 14:45:17;;;;;;;6.43;1.33;;;9.60;99.90;;;;;;4972254;28;20483;-81
2023/04/12 14:47:43;;;;;;;5.78;1.20;;;9.60;99.90;;;;;;4973031;28;20082;-80
2023/04/12 14:50:09;;;;;;;6.28;1.10;;;9.70;99.90;;;;;;4975599;28;20528;-80
2023/04/12 14:52:34;;;;;;;5.93;0.85;;;9.90;99.90;;;;;;4975498;28;20046;-80
2023/04/12 14:55:00;;;;;;;3.50;0.85;;;10.00;99.90;;;;;;4975535;28;20344;-81
2023/04/12 14:57:26;;;;;;;4.40;0.98;;;10.00;99.90;;;;;;4975840;28;20359;-80
2023/04/12 14:59:51;;;;;;;7.95;1.33;;;10.00;99.90;;;;;;4975519;28;20474;-80
2023/04/12 15:02:18;;;;;;;3.50;0.88;;;10.30;99.90;;;;;;4975347;28;20049;-79
2023/04/12 15:04:46;;;;;;;4.30;0.60;;;10.80;99.90;;;;;;4976676;28;20046;-80
2023/04/12 15:07:11;;;;;;;7.22;0.95;;;11.40;99.90;;;;;;4975983;28;20391;-80
2023/04/12 15:09:37;;;;;;;6.35;0.93;;;12.10;99.90;;;;;;4975326;28;20045;-81
2023/04/12 15:12:03;;;;;;;3.70;0.73;;;12.70;99.90;;;;;;4975453;28;20082;-80
2023/04/12 15:14:28;;;;;;;3.92;0.82;;;13.20;99.90;;;;;;4975281;28;20097;-81
2023/04/12 15:16:54;;;;;;;3.75;0.90;;;13.50;99.90;;;;;;4975223;28;20031;-79
2023/04/12 15:19:23;;;;;;;6.18;1.10;;;13.90;99.90;;;;;;4975461;28;20126;-80
2023/04/12 15:21:50;;;;;;;3.65;0.88;;;14.10;99.90;;;;;;4976853;28;20398;-79
2023/04/12 15:24:21;;;;;;;2.63;0.73;;;14.30;99.90;;;;;;4959249;28;20145;-80
2023/04/12 15:26:48;;;;;;;4.97;1.13;;;14.50;99.90;;;;;;4974950;28;20173;-78
2023/04/12 15:29:17;;;;;;;4.65;1.17;;;14.70;99.90;;;;;;4958888;28;20495;-79
2023/04/12 15:31:43;;;;;;;5.78;1.40;;;14.90;99.90;;;;;;4974664;28;20046;-81
2023/04/12 15:34:10;;;;;;;6.28;1.35;;;15.10;99.90;;;;;;4976757;28;20034;-81
2023/04/12 15:36:36;;;;;;;6.10;1.20;;;14.90;99.90;;;;;;4975042;28;20117;-81
2023/04/12 15:39:03;;;;;;;5.53;1.23;;;15.00;99.90;;;;;;4976274;28;20078;-82
2023/04/12 15:41:36;;;;;;;7.18;1.33;;;14.70;99.90;;;;;;4975303;28;20391;-81
2023/04/12 15:44:03;;;;;;;5.53;1.08;;;14.30;99.90;;;;;;4975429;28;20129;-82
2023/04/12 15:46:29;;;;;;;7.82;1.17;;;14.10;99.90;;;;;;4975287;28;20085;-79
2023/04/12 15:48:56;;;;;;;11.30;1.42;;;13.90;99.90;;;;;;4974901;28;20471;-80
2023/04/12 15:51:22;;;;;;;9.38;1.48;;;13.70;99.90;;;;;;4975951;28;20043;-80
2023/04/12 15:53:48;;;;;;;6.80;1.40;;;13.50;99.90;;;;;;4974862;28;20090;-78
2023/04/12 15:56:18;;;;;;;9.40;1.67;;;13.20;99.90;;;;;;4976144;28;20049;-80
2023/04/12 15:58:45;;;;;;;9.65;1.50;;;13.10;99.90;;;;;;4974322;28;20489;-78
2023/04/12 16:01:10;;;;;;;9.18;1.58;;;12.90;99.90;;;;;;4973988;28;20398;-79
2023/04/12 16:03:36;;;;;;;10.88;1.52;;;13.00;99.90;;;;;;4974484;28;20038;-79
2023/04/12 16:06:02;;;;;;;8.05;2.10;;;13.10;99.90;;;;;;4974870;28;20046;-81
2023/04/12 16:08:28;;;;;;;8.40;1.73;;;13.20;99.90;;;;;;4976108;28;20070;-80
2023/04/12 16:10:54;;;;;;;10.18;1.90;;;13.00;99.90;;;;;;4974324;28;20085;-81
2023/04/12 16:13:20;;;;;;;11.57;2.65;;;12.90;99.90;;;;;;4975895;28;20051;-80
2023/04/12 16:15:46;;;;;;;11.60;3.47;;;12.70;99.90;;;;;;4975703;28;20398;-80
2023/04/12 16:18:12;;;;;;;19.25;4.38;;;12.50;99.90;;;;;;4974422;28;20066;-82
2023/04/12 16:20:39;;;;;;;19.17;4.38;;;12.50;99.90;;;;;;4974422;28;20046;-81
2023/04/12 16:23:05;;;;;;;16.98;3.78;;;12.30;99.90;;;;;;4973942;28;20182;-80
2023/04/12 16:25:32;;;;;;;9.40;2.75;;;12.20;99.90;;;;;;4974468;28;20051;-79
2023/04/12 16:28:01;;;;;;;8.23;2.00;;;12.20;99.90;;;;;;4975768;28;20141;-81
2023/04/12 16:30:28;;;;;;;5.50;1.27;;;12.10;99.90;;;;;;4958120;28;20133;-80
2023/04/12 16:32:54;;;;;;;6.85;1.38;;;12.20;99.90;;;;;;4974195;28;20133;-81
2023/04/12 16:35:20;;;;;;;7.07;1.08;;;12.10;99.90;;;;;;4974061;28;20078;-80
2023/04/12 16:37:46;;;;;;;6.47;1.08;;;12.00;99.90;;;;;;4974260;28;20417;-78
2023/04/12 16:40:12;;;;;;;4.95;1.40;;;11.90;99.90;;;;;;4958090;28;20043;-82
2023/04/12 16:42:42;;;;;;;5.10;1.00;;;11.80;99.90;;;;;;4974220;28;20141;-78
2023/04/12 16:45:09;;;;;;;5.55;0.90;;;11.80;99.90;;;;;;4973898;28;20043;-80
2023/04/12 16:47:35;;;;;;;7.97;2.15;;;11.70;99.90;;;;;;4974006;28;20042;-80
2023/04/12 16:50:03;;;;;;;8.27;1.25;;;11.70;99.90;;;;;;4973695;28;20049;-80
2023/04/12 16:52:29;;;;;;;4.32;0.90;;;11.70;99.90;;;;;;4973669;28;20078;-80
2023/04/12 16:54:56;;;;;;;8.45;1.75;;;11.60;99.90;;;;;;4974122;28;20042;-80
2023/04/12 16:57:22;;;;;;;7.38;1.02;;;11.60;99.90;;;;;;4974116;28;20043;-78
2023/04/12 16:59:49;;;;;;;9.98;1.27;;;11.70;99.90;;;;;;4974047;28;20398;-80
2023/04/12 17:02:16;;;;;;;7.35;1.20;;;11.70;99.90;;;;;;4957834;28;20047;-80
2023/04/12 17:04:42;;;;;;;9.15;1.10;;;11.70;99.90;;;;;;4973823;28;20061;-81
2023/04/12 17:07:09;;;;;;;6.45;2.13;;;11.70;99.90;;;;;;4974578;28;20046;-80
2023/04/12 17:09:34;;;;;;;5.75;1.50;;;11.60;99.90;;;;;;4957588;28;20126;-81
2023/04/12 17:12:00;;;;;;;7.00;1.67;;;11.50;99.90;;;;;;4975816;28;20217;-80
2023/04/12 17:14:27;;;;;;;7.93;1.83;;;11.50;99.90;;;;;;4959713;28;20045;-79
2023/04/12 17:16:53;;;;;;;5.95;1.23;;;11.40;99.90;;;;;;4978059;28;20112;-77
2023/04/12 17:19:19;;;;;;;5.78;0.85;;;11.30;99.90;;;;;;4975473;28;20054;-80
2023/04/12 17:21:46;;;;;;;11.38;1.38;;;11.20;99.90;;;;;;4977991;28;20178;-80
2023/04/12 17:24:13;;;;;;;7.22;1.30;;;11.20;99.90;;;;;;4957997;28;20043;-79
2023/04/12 17:26:39;;;;;;;4.20;0.88;;;11.30;99.90;;;;;;4974175;28;20422;-80
2023/04/12 17:29:05;;;;;;;6.13;1.52;;;11.40;99.90;;;;;;4975161;28;20039;-80
2023/04/12 17:31:35;;;;;;;2.95;0.70;;;11.40;99.90;;;;;;4973177;28;20046;-82
2023/04/12 17:34:02;;;;;;;3.30;0.60;;;11.40;99.90;;;;;;4974285;28;20074;-81
2023/04/12 17:36:30;;;;;;;4.63;1.00;;;11.40;99.90;;;;;;4973326;28;20483;-79
2023/04/12 17:39:02;;;;;;;5.07;0.80;;;11.40;99.90;;;;;;4973301;28;20081;-78
2023/04/12 17:41:28;;;;;;;4.60;0.88;;;11.30;99.90;;;;;;4956861;28;20042;-79
2023/04/12 17:43:53;;;;;;;3.85;0.90;;;11.30;99.90;;;;;;4973455;28;20181;-78
2023/04/12 17:46:19;;;;;;;4.60;0.90;;;11.30;99.90;;;;;;4973210;28;20065;-78
2023/04/12 17:48:45;;;;;;;5.22;1.30;;;11.20;99.90;;;;;;4973407;28;20053;-79
2023/04/12 17:51:11;;;;;;;10.35;2.10;;;11.10;99.90;;;;;;4973582;28;20043;-80
2023/04/12 17:53:36;;;;;;;3.17;0.70;;;11.10;99.90;;;;;;4973316;28;20038;-81
2023/04/12 17:56:03;;;;;;;5.38;0.63;;;11.00;99.90;;;;;;4973071;28;20478;-78
2023/04/12 17:58:29;;;;;;;2.10;0.60;;;10.90;99.90;;;;;;4973330;28;20487;-81
2023/04/12 18:00:55;;;;;;;6.55;0.90;;;10.90;99.90;;;;;;4973237;28;20053;-79
2023/04/12 18:03:21;;;;;;;4.60;0.75;;;10.80;99.90;;;;;;4974077;28;20070;-81
2023/04/12 18:05:47;;;;;;;4.70;0.70;;;10.80;99.90;;;;;;4974358;28;20051;-79
2023/04/12 18:08:15;;;;;;;5.50;0.88;;;10.70;99.90;;;;;;4956528;28;20039;-80
2023/04/12 18:10:41;;;;;;;5.28;0.90;;;10.60;99.90;;;;;;4974114;28;20399;-81
2023/04/12 18:13:06;;;;;;;6.15;1.25;;;10.60;99.90;;;;;;4973614;28;20050;-79
2023/04/12 18:15:32;;;;;;;4.82;1.00;;;10.50;99.90;;;;;;4957561;28;20035;-79
2023/04/12 18:17:58;;;;;;;6.75;1.23;;;10.40;99.90;;;;;;4972700;28;20130;-82
2023/04/12 18:20:23;;;;;;;5.10;1.17;;;10.30;99.90;;;;;;4974158;28;20049;-81
2023/04/12 18:22:49;;;;;;;11.73;1.77;;;10.20;99.90;;;;;;4973645;28;20057;-80
2023/04/12 18:25:16;;;;;;;10.23;1.75;;;10.20;99.90;;;;;;4976683;28;20394;-81
2023/04/12 18:27:46;;;;;;;10.75;1.63;;;10.10;99.90;;;;;;4978078;28;20047;-81
2023/04/12 18:30:14;;;;;;;7.97;1.98;;;10.00;99.90;;;;;;4976807;28;20046;-79
2023/04/12 18:32:40;;;;;;;6.38;1.42;;;9.90;99.90;;;;;;4976688;28;20034;-79
2023/04/12 18:35:07;;;;;;;6.07;1.23;;;9.90;99.90;;;;;;4977358;28;20047;-80
2023/04/12 18:37:32;;;;;;;7.07;1.15;;;9.80;99.90;;;;;;4960123;28;20140;-79
2023/04/12 18:39:58;;;;;;;6.03;1.42;;;9.80;99.90;;;;;;4976546;28;20039;-81
2023/04/12 18:42:24;;;;;;;8.23;1.55;;;9.70;99.90;;;;;;4977684;28;20352;-79
2023/04/12 18:44:50;;;;;;;9.80;2.35;;;9.70;99.90;;;;;;4977272;28;20133;-78
2023/04/12 18:47:16;;;;;;;10.60;2.50;;;9.70;99.90;;;;;;4976067;28;20039;-82
2023/04/12 18:49:42;;;;;;;10.85;1.65;;;9.70;99.90;;;;;;4976061;28;20041;-80
2023/04/12 18:52:08;;;;;;;7.38;1.40;;;9.60;99.90;;;;;;4975744;28;20517;-81
2023/04/12 18:54:33;;;;;;;8.18;1.27;;;9.60;99.90;;;;;;4977139;28;20093;-79
2023/04/12 18:57:02;;;;;;;6.53;1.33;;;9.50;99.90;;;;;;4975672;28;20034;-81
2023/04/12 18:59:28;;;;;;;6.40;0.95;;;9.50;99.90;;;;;;4959778;28;20046;-81
2023/04/12 19:01:53;;;;;;;6.20;1.20;;;9.50;99.90;;;;;;4975454;28;20054;-80
2023/04/12 19:04:19;;;;;;;5.65;1.08;;;9.40;99.90;;;;;;4975949;28;20396;-80
2023/04/12 19:06:46;;;;;;;9.98;1.55;;;9.40;99.90;;;;;;4975420;28;20066;-83
2023/04/12 19:09:11;;;;;;;8.77;1.88;;;9.30;99.90;;;;;;4975762;28;20487;-79
2023/04/12 19:11:37;;;;;;;5.95;1.10;;;9.30;99.90;;;;;;4977088;28;20053;-82
2023/04/12 19:14:03;;;;;;;7.60;1.63;;;9.20;99.90;;;;;;4977594;28;20070;-82
2023/04/12 19:16:28;;;;;;;5.03;1.05;;;9.10;99.90;;;;;;4976973;28;20047;-78
2023/04/12 19:18:56;;;;;;;6.85;1.50;;;9.10;99.90;;;;;;4975509;28;20439;-79
2023/04/12 19:21:23;;;;;;;6.60;1.30;;;9.00;99.90;;;;;;4975035;28;20097;-81
2023/04/12 19:23:48;;;;;;;8.07;2.85;;;8.90;99.90;;;;;;4976620;28;20039;-80
2023/04/12 19:26:15;;;;;;;6.15;1.45;;;8.80;99.90;;;;;;4975133;28;20041;-82
2023/04/12 19:28:43;;;;;;;5.38;1.30;;;8.80;99.90;;;;;;4975177;28;20125;-78
2023/04/12 19:31:08;;;;;;;6.78;1.70;;;8.70;99.90;;;;;;4976544;28;20093;-82
2023/04/12 19:33:35;;;;;;;4.43;1.55;;;8.60;99.90;;;;;;4975881;28;20388;-79
2023/04/12 19:36:01;;;;;;;6.15;1.85;;;8.50;99.90;;;;;;4958697;28;20038;-80
2023/04/12 19:38:26;;;;;;;3.22;1.60;;;8.40;99.90;;;;;;4974902;28;20062;-80
2023/04/12 19:40:53;;;;;;;5.90;1.80;;;8.30;99.90;;;;;;4974945;28;20056;-80
2023/04/12 19:43:19;;;;;;;9.57;2.10;;;8.30;99.90;;;;;;4975841;28;20122;-82
2023/04/12 19:45:46;;;;;;;3.97;1.60;;;8.20;99.90;;;;;;4974865;28;20081;-82
2023/04/12 19:48:12;;;;;;;4.13;1.63;;;8.10;99.90;;;;;;4974753;28;20051;-80
2023/04/12 19:50:38;;;;;;;6.50;2.08;;;8.10;99.90;;;;;;4974433;28;20043;-80
2023/04/12 19:53:05;;;;;;;5.53;1.80;;;8.10;99.90;;;;;;4975706;28;20479;-81
2023/04/12 19:55:30;;;;;;;5.60;1.45;;;8.00;99.90;;;;;;4974496;28;20078;-81
2023/04/12 19:57:57;;;;;;;6.50;1.60;;;8.00;99.90;;;;;;4974550;28;20145;-79
2023/04/12 20:00:24;;;;;;;5.55;1.55;;;7.90;99.90;;;;;;4974216;28;20050;-81
2023/04/12 20:02:51;;;;;;;5.32;1.55;;;7.90;99.90;;;;;;4974255;28;20039;-81
2023/04/12 20:05:19;;;;;;;4.80;1.52;;;7.80;99.90;;;;;;4974736;28;20046;-80
2023/04/12 20:07:45;;;;;;;3.03;1.50;;;7.80;99.90;;;;;;4974228;28;20129;-78
2023/04/12 20:10:12;;;;;;;5.47;1.50;;;7.70;99.90;;;;;;4974497;28;20122;-79
2023/04/12 20:12:38;;;;;;;4.78;1.48;;;7.70;99.90;;;;;;4974064;28;20043;-80
2023/04/12 20:15:07;;;;;;;5.85;1.83;;;7.70;99.90;;;;;;4974124;28;20129;-80
2023/04/12 20:17:33;;;;;;;4.85;1.45;;;7.60;99.90;;;;;;4974028;28;20454;-82
2023/04/12 20:19:59;;;;;;;4.57;1.60;;;7.60;99.90;;;;;;4957908;28;20053;-82
2023/04/12 20:22:25;;;;;;;5.00;1.48;;;7.60;99.90;;;;;;4975175;28;20047;-80
2023/04/12 20:24:52;;;;;;;6.53;1.65;;;7.50;99.90;;;;;;4973908;28;20057;-80
2023/04/12 20:27:20;;;;;;;5.68;1.45;;;7.50;99.90;;;;;;4957743;28;20082;-83
2023/04/12 20:29:46;;;;;;;6.65;1.60;;;7.50;99.90;;;;;;4973895;28;20086;-79
2023/04/12 20:32:13;;;;;;;4.03;1.60;;;7.40;99.90;;;;;;4973776;28;20089;-81
2023/04/12 20:34:45;;;;;;;4.15;1.40;;;7.40;99.90;;;;;;4974057;28;20050;-82
2023/04/12 20:37:14;;;;;;;4.95;1.75;;;7.30;99.90;;;;;;4958720;28;20411;-80
2023/04/12 20:39:40;;;;;;;3.72;1.35;;;7.30;99.90;;;;;;4974013;28;20089;-81
2023/04/12 20:42:07;;;;;;;5.07;2.22;;;7.20;99.90;;;;;;4973546;28;20503;-81
2023/04/12 20:44:33;;;;;;;4.72;1.45;;;7.20;99.90;;;;;;4973662;28;20058;-81
2023/04/12 20:46:58;;;;;;;3.00;1.38;;;7.10;99.90;;;;;;4973061;28;20043;-80
2023/04/12 20:49:26;;;;;;;2.47;1.20;;;7.10;99.90;;;;;;4973708;28;20073;-81
2023/04/12 20:51:57;;;;;;;4.45;1.70;;;7.00;99.90;;;;;;4973344;28;20050;-79
2023/04/12 20:54:28;;;;;;;3.63;1.60;;;7.00;99.90;;;;;;4973403;28;20046;-81
2023/04/12 20:56:55;;;;;;;4.13;1.40;;;7.00;99.90;;;;;;4973435;28;20098;-79
2023/04/12 20:59:21;;;;;;;2.28;1.40;;;6.90;99.90;;;;;;4973389;28;20039;-80
2023/04/12 21:01:51;;;;;;;5.30;2.08;;;6.90;99.90;;;;;;4973484;28;20046;-79
2023/04/12 21:04:18;;;;;;;4.85;1.88;;;6.90;99.90;;;;;;4974637;28;20043;-79